Time;durP1;ratioP1;P1;durP2;ratioP2;P2;SDS_P1;SDS_P2;PMS_P1;PMS_P2;Temp;Humidity;BMP_temperature;BMP_pressure;BME280_temperature;BME280_humidity;BME280_pressure;Samples;Min_cycle;Max_cycle;Signal;HPM_P1;HPM_P2
2023/06/11 00:04:45;;;;;;;;;25.00;25.00;;;;;;;;2;216064431;216064431;-96
2023/06/11 00:13:03;;;;;;;;;17.00;17.00;;;;;;;;2;261076939;261076939;-96
2023/06/11 00:21:18;;;;;;;;;16.50;16.50;;;;;;;;2;216063599;216063599;-96
2023/06/11 00:29:33;;;;;;;;;22.00;22.00;;;;;;;;2;261077773;261077773;-96
2023/06/11 00:37:50;;;;;;;;;17.00;17.00;;;;;;;;2;216063595;216063595;-96
2023/06/11 00:46:10;;;;;;;;;20.00;20.00;;;;;;;;2;261076359;261076359;-96
2023/06/11 00:54:26;;;;;;;;;19.00;19.00;;;;;;;;2;216061005;216061005;-95
2023/06/11 01:03:08;;;;;;;;;18.00;18.00;;;;;;;;2;261076506;261076506;-96
2023/06/11 01:11:24;;;;;;;;;20.50;20.50;;;;;;;;2;216064003;216064003;-96
2023/06/11 01:19:59;;;;;;;;;16.00;16.00;;;;;;;;2;261076489;261076489;-96
2023/06/11 01:28:17;;;;;;;;;19.00;19.00;;;;;;;;2;216062528;216062528;-96
2023/06/11 01:36:36;;;;;;;;;25.00;25.00;;;;;;;;2;261075967;261075967;-96
2023/06/11 01:44:52;;;;;;;;;18.50;18.50;;;;;;;;2;216062393;216062393;-96
2023/06/11 01:50:41;;;;;;;;;13.00;13.00;;;;;;;;2;261076979;261076979;-96
2023/06/11 01:53:09;;;;;;;;;20.67;20.67;;;;;;;;6327175;22;28226;-96
2023/06/11 01:55:36;;;;;;;;;20.67;20.67;;;;;;;;6330174;22;28367;-96
2023/06/11 01:58:01;;;;;;;;;24.33;24.33;;;;;;;;6331551;22;28420;-96
2023/06/11 02:00:27;;;;;;;;;22.33;22.33;;;;;;;;6330028;22;28382;-96
2023/06/11 02:02:52;;;;;;;;;19.00;19.00;;;;;;;;6302766;22;28453;-96
2023/06/11 02:12:12;;;;;;;;;;;;;;;;;;4780383;22;234069899;-96
2023/06/11 02:15:53;;;;;;;;;22.00;22.00;;;;;;;;2;220020645;220020645;-96
2023/06/11 02:18:47;;;;;;;;;23.00;23.00;;;;;;;;1295151;22;144411562;-96
2023/06/11 02:21:12;;;;;;;;;25.00;23.00;;;;;;;;6326111;22;28688;-96
2023/06/11 02:23:38;;;;;;;;;19.67;19.67;;;;;;;;6330602;22;28202;-96
2023/06/11 02:26:03;;;;;;;;;23.00;23.00;;;;;;;;6330082;22;28233;-96
2023/06/11 02:34:07;;;;;;;;;;;;;;;;;;1488863;22;234068591;-96
2023/06/11 02:43:08;;;;;;;;;13.50;13.50;;;;;;;;2;279081278;279081278;-96
2023/06/11 02:50:38;;;;;;;;;25.00;25.00;;;;;;;;2;234070429;234070429;-96
2023/06/11 02:59:38;;;;;;;;;22.00;22.00;;;;;;;;2;279079601;279079601;-96
2023/06/11 03:07:09;;;;;;;;;13.50;13.50;;;;;;;;2;234069336;234069336;-96
2023/06/11 03:16:10;;;;;;;;;22.00;22.00;;;;;;;;2;279080978;279080978;-96
2023/06/11 03:23:41;;;;;;;;;23.00;23.00;;;;;;;;2;234069123;234069123;-96
2023/06/11 03:32:41;;;;;;;;;20.50;20.50;;;;;;;;2;279081470;279081470;-96
2023/06/11 03:40:14;;;;;;;;;20.00;20.00;;;;;;;;2;234072081;234072081;-96
2023/06/11 03:49:15;;;;;;;;;24.00;24.00;;;;;;;;2;279085190;279085190;-96
2023/06/11 03:56:45;;;;;;;;;13.50;13.50;;;;;;;;2;234071328;234071328;-96
2023/06/11 04:05:45;;;;;;;;;20.00;20.00;;;;;;;;2;279082183;279082183;-96
2023/06/11 04:13:16;;;;;;;;;19.50;19.50;;;;;;;;2;234070248;234070248;-96
2023/06/11 04:22:16;;;;;;;;;16.50;16.50;;;;;;;;2;279080580;279080580;-96
2023/06/11 04:29:48;;;;;;;;;17.50;17.50;;;;;;;;2;234068806;234068806;-96
2023/06/11 04:38:48;;;;;;;;;23.50;23.50;;;;;;;;2;279083620;279083620;-96
2023/06/11 04:46:19;;;;;;;;;31.50;30.50;;;;;;;;2;234068667;234068667;-96
2023/06/11 04:55:24;;;;;;;;;19.50;19.50;;;;;;;;2;279081999;279081999;-96
2023/06/11 05:02:58;;;;;;;;;14.00;14.00;;;;;;;;2;234070697;234070697;-96
2023/06/11 05:11:59;;;;;;;;;15.50;15.50;;;;;;;;2;279081896;279081896;-96
2023/06/11 05:19:29;;;;;;;;;13.00;13.00;;;;;;;;2;234068927;234068927;-96
2023/06/11 05:28:30;;;;;;;;;14.50;14.50;;;;;;;;2;279081532;279081532;-96
2023/06/11 05:36:01;;;;;;;;;18.50;18.50;;;;;;;;2;234070372;234070372;-96
2023/06/11 05:45:01;;;;;;;;;11.00;11.00;;;;;;;;2;279082193;279082193;-96
2023/06/11 05:52:34;;;;;;;;;15.00;15.00;;;;;;;;2;234070402;234070402;-96
2023/06/11 06:01:39;;;;;;;;;17.00;17.00;;;;;;;;2;279080632;279080632;-96
2023/06/11 06:09:31;;;;;;;;;11.00;11.00;;;;;;;;2;234068148;234068148;-96
2023/06/11 06:18:36;;;;;;;;;10.00;10.00;;;;;;;;2;279077667;279077667;-96
2023/06/11 06:26:13;;;;;;;;;11.50;11.50;;;;;;;;2;234069118;234069118;-96
2023/06/11 06:35:30;;;;;;;;;13.50;13.50;;;;;;;;2;279083261;279083261;-96
2023/06/11 06:43:23;;;;;;;;;10.00;10.00;;;;;;;;2;234070464;234070464;-96
2023/06/11 06:52:41;;;;;;;;;;;;;;;;;;;;;
2023/06/11 07:00:23;;;;;;;;;;;;;;;;;;;;;
2023/06/11 07:09:49;;;;;;;;;10.50;10.50;;;;;;;;2;279081081;279081081;-91
2023/06/11 07:17:30;;;;;;;;;;;;;;;;;;;;;
2023/06/11 07:26:31;;;;;;;;;13.00;13.00;;;;;;;;2;279110073;279110073;-92
2023/06/11 07:34:02;;;;;;;;;13.50;13.50;;;;;;;;2;234068746;234068746;-92
2023/06/11 07:43:03;;;;;;;;;10.50;10.50;;;;;;;;2;279082960;279082960;-92
2023/06/11 07:50:33;;;;;;;;;13.00;13.00;;;;;;;;2;234066397;234066397;-92
2023/06/11 07:59:36;;;;;;;;;10.50;10.50;;;;;;;;2;279081498;279081498;-92
2023/06/11 08:07:07;;;;;;;;;8.50;8.50;;;;;;;;2;234071835;234071835;-94
2023/06/11 08:16:08;;;;;;;;;13.00;13.00;;;;;;;;2;279080573;279080573;-94
2023/06/11 08:23:39;;;;;;;;;11.00;11.00;;;;;;;;2;234068107;234068107;-94
2023/06/11 08:32:39;;;;;;;;;13.50;13.50;;;;;;;;2;279079059;279079059;-94
2023/06/11 08:40:14;;;;;;;;;10.50;10.50;;;;;;;;2;234069841;234069841;-94
2023/06/11 08:43:20;;;;;;;;;13.00;13.00;;;;;;;;2;186093725;186093725;-94
2023/06/11 08:52:38;;;;;;;;;16.50;16.50;;;;;;;;2371664;22;261074418;-94
2023/06/11 09:00:55;;;;;;;;;8.00;8.00;;;;;;;;2;216063711;216063711;-94
2023/06/11 09:09:21;;;;;;;;;15.50;15.50;;;;;;;;2;261078460;261078460;-93
2023/06/11 09:17:37;;;;;;;;;8.00;8.00;;;;;;;;2;216066919;216066919;-95
2023/06/11 09:25:55;;;;;;;;;9.50;9.50;;;;;;;;2;261074883;261074883;-95
2023/06/11 09:34:12;;;;;;;;;11.00;11.00;;;;;;;;2;216064461;216064461;-96
2023/06/11 09:37:31;;;;;;;;;7.50;7.50;;;;;;;;2;195736486;195736486;-96
2023/06/11 09:46:39;;;;;;;;;10.00;10.00;;;;;;;;307361;22;279080653;-95
2023/06/11 09:54:31;;;;;;;;;9.50;9.50;;;;;;;;2;234068591;234068591;-95
2023/06/11 09:56:57;;;;;;;;;13.00;13.00;;;;;;;;191621;22;140578396;-94
2023/06/11 10:08:22;;;;;;;;;11.50;11.50;;;;;;;;224666;22;279080371;-92
2023/06/11 10:12:10;;;;;;;;;;;;;;;;;;2;226987358;226987358;-94
2023/06/11 10:21:17;;;;;;;;;10.50;10.50;;;;;;;;198105;22;279082391;-95
2023/06/11 10:28:49;;;;;;;;;7.50;7.50;;;;;;;;2;234068404;234068404;-94
2023/06/11 10:37:49;;;;;;;;;7.50;7.50;;;;;;;;2;279078986;279078986;-95
2023/06/11 10:45:20;;;;;;;;;10.00;10.00;;;;;;;;2;234067072;234067072;-95
2023/06/11 10:54:28;;;;;;;;;6.50;6.50;;;;;;;;2;279082132;279082132;-93
2023/06/11 11:01:58;;;;;;;;;13.50;13.50;;;;;;;;2;234069027;234069027;-93
2023/06/11 11:10:59;;;;;;;;;7.50;7.50;;;;;;;;2;279079074;279079074;-94
2023/06/11 11:18:30;;;;;;;;;10.00;10.00;;;;;;;;2;234068562;234068562;-94
2023/06/11 11:27:30;;;;;;;;;10.00;10.00;;;;;;;;2;279079174;279079174;-93
2023/06/11 11:35:03;;;;;;;;;9.50;9.50;;;;;;;;2;234068950;234068950;-94
2023/06/11 11:44:04;;;;;;;;;8.50;8.50;;;;;;;;2;279079910;279079910;-94
2023/06/11 11:51:45;;;;;;;;;11.50;11.50;;;;;;;;2;234072101;234072101;-93
2023/06/11 12:00:48;;;;;;;;;11.50;11.50;;;;;;;;2;279080699;279080699;-94
2023/06/11 12:08:13;;;;;;;;;13.50;13.50;;;;;;;;2;234069343;234069343;-94
2023/06/11 12:17:21;;;;;;;;;7.00;7.00;;;;;;;;217183;22;234065829;-95
2023/06/11 12:26:22;;;;;;;;;7.50;7.50;;;;;;;;2;279082320;279082320;-95
2023/06/11 12:33:49;;;;;;;;;16.50;16.50;;;;;;;;2;234069205;234069205;-94
2023/06/11 12:36:45;;;;;;;;;7.00;7.00;;;;;;;;3;21155047;153380724;-94
2023/06/11 12:39:10;;;;;;;;;11.50;11.50;;;;;;;;6294529;22;28406;-94
2023/06/11 12:41:36;;;;;;;;;11.00;11.00;;;;;;;;4859389;22;24677642;-94
2023/06/11 12:46:36;;;;;;;;;;;;;;;;;;1533714;22;216063617;-93
2023/06/11 12:54:12;;;;;;;;;8.50;8.50;;;;;;;;217080;22;233763513;-94
2023/06/11 13:03:12;;;;;;;;;12.50;12.50;;;;;;;;2;279081713;279081713;-94
2023/06/11 13:10:44;;;;;;;;;11.50;11.50;;;;;;;;2;234069230;234069230;-96
2023/06/11 13:19:45;;;;;;;;;13.00;13.00;;;;;;;;2;279080133;279080133;-93
2023/06/11 13:27:15;;;;;;;;;14.00;14.00;;;;;;;;2;234070236;234070236;-92
2023/06/11 13:29:40;;;;;;;;;8.67;8.67;;;;;;;;3807709;22;57698875;-93
2023/06/11 13:32:06;;;;;;;;;9.33;9.33;;;;;;;;6330554;22;28378;-93
2023/06/11 13:34:31;;;;;;;;;8.00;8.00;;;;;;;;6303248;22;28660;-93
2023/06/11 13:38:49;;;;;;;;;;;;;;;;;;3138760;22;185829246;-93
2023/06/11 13:54:20;;;;;;;;;10.33;10.33;;;;;;;;6308389;22;28993;-95
2023/06/11 13:56:46;;;;;;;;;13.67;13.67;;;;;;;;6363112;22;28392;-92
2023/06/11 13:59:11;;;;;;;;;12.00;12.00;;;;;;;;6362982;22;28521;-93
2023/06/11 14:01:36;;;;;;;;;10.33;10.33;;;;;;;;6361956;22;28315;-93
2023/06/11 14:04:01;;;;;;;;;10.00;10.00;;;;;;;;6363403;22;27833;-93
2023/06/11 14:06:27;;;;;;;;;11.33;11.33;;;;;;;;6363124;22;28252;-93
2023/06/11 14:08:52;;;;;;;;;12.00;12.00;;;;;;;;6362340;22;28488;-93
2023/06/11 14:11:23;;;;;;;;;;;;;;;;;;439027;22;141290448;-93
2023/06/11 14:20:00;;;;;;;;;8.00;8.00;;;;;;;;873009;22;261075574;-92
2023/06/11 14:28:10;;;;;;;;;9.00;9.00;;;;;;;;2;209973650;209973650;-92
2023/06/11 14:36:25;;;;;;;;;14.50;14.50;;;;;;;;2;261076183;261076183;-93
2023/06/11 14:44:41;;;;;;;;;11.00;11.00;;;;;;;;2;216064446;216064446;-93
2023/06/11 14:52:56;;;;;;;;;17.00;17.00;;;;;;;;2;261075717;261075717;-93
2023/06/11 15:01:11;;;;;;;;;10.50;10.50;;;;;;;;2;216066700;216066700;-93
2023/06/11 15:09:27;;;;;;;;;11.00;11.00;;;;;;;;2;261074364;261074364;-92
2023/06/11 15:17:42;;;;;;;;;12.00;12.00;;;;;;;;2;216063985;216063985;-94
2023/06/11 15:25:58;;;;;;;;;6.50;6.50;;;;;;;;2;261075907;261075907;-94
2023/06/11 15:34:13;;;;;;;;;20.50;20.50;;;;;;;;2;216065127;216065127;-93
2023/06/11 15:42:28;;;;;;;;;12.00;12.00;;;;;;;;2;261077766;261077766;-93
2023/06/11 15:44:54;;;;;;;;;9.25;9.25;;;;;;;;6045271;22;6897464;-93
2023/06/11 15:47:19;;;;;;;;;12.00;12.00;;;;;;;;6361423;22;28221;-93
2023/06/11 15:49:44;;;;;;;;;11.25;11.25;;;;;;;;6314204;22;480645;-93
2023/06/11 15:52:09;;;;;;;;;12.33;12.33;;;;;;;;6362219;22;28214;-93
2023/06/11 15:54:35;;;;;;;;;13.00;13.00;;;;;;;;6334435;22;28296;-93
2023/06/11 16:03:59;;;;;;;;;;;;;;;;;;4808837;22;234067061;-92
2023/06/11 16:13:00;;;;;;;;;11.50;11.50;;;;;;;;2;279080267;279080267;-95
2023/06/11 16:18:32;;;;;;;;;12.00;12.00;;;;;;;;219488;22;279080286;-96
2023/06/11 16:21:03;;;;;;;;;10.67;10.67;;;;;;;;6328774;22;28348;-96
2023/06/11 16:23:28;;;;;;;;;10.67;10.67;;;;;;;;6332985;22;28211;-96
2023/06/11 16:25:55;;;;;;;;;12.50;12.50;;;;;;;;6115628;22;6043675;-95
2023/06/11 16:32:15;;;;;;;;;;;;;;;;;;206857;22;160633362;-95
2023/06/11 16:41:15;;;;;;;;;15.50;15.50;;;;;;;;2;279079146;279079146;-92
2023/06/11 16:48:55;;;;;;;;;16.00;16.00;;;;;;;;2;233572383;233572383;-94
2023/06/11 16:57:55;;;;;;;;;16.50;16.50;;;;;;;;2;279082844;279082844;-93
2023/06/11 17:05:26;;;;;;;;;13.00;13.00;;;;;;;;2;234072840;234072840;-93
2023/06/11 17:14:26;;;;;;;;;11.50;11.50;;;;;;;;2;279081446;279081446;-94
2023/06/11 17:21:59;;;;;;;;;13.50;13.50;;;;;;;;2;234071647;234071647;-94
2023/06/11 17:26:00;;;;;;;;;14.50;14.50;;;;;;;;2;239922881;239922881;-96
2023/06/11 17:33:35;;;;;;;;;17.00;17.00;;;;;;;;206328;22;234068626;-96
2023/06/11 17:42:40;;;;;;;;;5.00;5.00;;;;;;;;2;279081304;279081304;-94
2023/06/11 17:50:10;;;;;;;;;9.00;9.00;;;;;;;;2;234068005;234068005;-95
2023/06/11 17:59:11;;;;;;;;;11.50;11.50;;;;;;;;2;279083085;279083085;-96
2023/06/11 18:06:41;;;;;;;;;20.00;20.00;;;;;;;;2;234068460;234068460;-96
2023/06/11 18:15:42;;;;;;;;;21.00;21.00;;;;;;;;2;279082414;279082414;-96
2023/06/11 18:23:12;;;;;;;;;8.50;8.50;;;;;;;;2;234067949;234067949;-95
2023/06/11 18:32:13;;;;;;;;;25.00;25.00;;;;;;;;2;279081587;279081587;-94
2023/06/11 18:39:44;;;;;;;;;16.00;16.00;;;;;;;;2;234071804;234071804;-96
2023/06/11 18:48:44;;;;;;;;;19.00;19.00;;;;;;;;2;279082105;279082105;-96
2023/06/11 18:56:14;;;;;;;;;12.00;12.00;;;;;;;;2;234069555;234069555;-96
2023/06/11 19:05:15;;;;;;;;;11.50;11.50;;;;;;;;2;279081332;279081332;-96
2023/06/11 19:12:48;;;;;;;;;13.50;13.50;;;;;;;;2;234068877;234068877;-96
2023/06/11 19:21:48;;;;;;;;;15.00;15.00;;;;;;;;2;279078838;279078838;-95
2023/06/11 19:29:19;;;;;;;;;21.50;21.50;;;;;;;;2;234068250;234068250;-96
2023/06/11 19:38:19;;;;;;;;;14.00;14.00;;;;;;;;2;279077268;279077268;-96
2023/06/11 19:45:50;;;;;;;;;14.50;14.50;;;;;;;;2;234066808;234066808;-96
2023/06/11 19:54:50;;;;;;;;;18.00;18.00;;;;;;;;2;279079806;279079806;-96
2023/06/11 20:02:21;;;;;;;;;25.50;25.50;;;;;;;;2;234067528;234067528;-96
2023/06/11 20:11:22;;;;;;;;;24.00;24.00;;;;;;;;2;279080602;279080602;-96
2023/06/11 20:19:19;;;;;;;;;25.00;25.00;;;;;;;;2;234059642;234059642;-96
2023/06/11 20:28:22;;;;;;;;;24.50;24.50;;;;;;;;2;279074490;279074490;-96
2023/06/11 20:36:23;;;;;;;;;;;;;;;;;;;;;
2023/06/11 20:45:29;;;;;;;;;35.00;32.50;;;;;;;;2;279094577;279094577;-96
2023/06/11 20:53:00;;;;;;;;;44.50;38.50;;;;;;;;2;234066949;234066949;-96
2023/06/11 21:02:01;;;;;;;;;38.00;34.50;;;;;;;;2;279083039;279083039;-96
2023/06/11 21:09:31;;;;;;;;;34.00;32.00;;;;;;;;2;234067732;234067732;-96
2023/06/11 21:18:32;;;;;;;;;29.50;29.00;;;;;;;;2;279081901;279081901;-96
2023/06/11 21:26:02;;;;;;;;;27.00;26.50;;;;;;;;2;234070760;234070760;-96
2023/06/11 21:35:03;;;;;;;;;32.50;31.00;;;;;;;;2;279082671;279082671;-96
2023/06/11 21:42:33;;;;;;;;;31.50;31.00;;;;;;;;2;234068151;234068151;-96
2023/06/11 21:51:33;;;;;;;;;36.00;33.50;;;;;;;;2;279080852;279080852;-95
2023/06/11 21:59:04;;;;;;;;;40.00;36.00;;;;;;;;2;234071334;234071334;-96
2023/06/11 22:08:05;;;;;;;;;39.50;35.50;;;;;;;;2;279082678;279082678;-96
2023/06/11 22:15:36;;;;;;;;;33.50;32.00;;;;;;;;2;234069562;234069562;-96
2023/06/11 22:24:37;;;;;;;;;26.50;26.50;;;;;;;;2;279084263;279084263;-96
2023/06/11 22:32:08;;;;;;;;;27.50;27.00;;;;;;;;2;234071479;234071479;-96
2023/06/11 22:41:09;;;;;;;;;29.00;28.50;;;;;;;;2;279081928;279081928;-96
2023/06/11 22:48:41;;;;;;;;;22.50;22.50;;;;;;;;2;234070088;234070088;-96
2023/06/11 22:57:41;;;;;;;;;17.50;17.50;;;;;;;;2;279081786;279081786;-96
2023/06/11 23:05:14;;;;;;;;;17.50;17.50;;;;;;;;2;234068981;234068981;-96
2023/06/11 23:14:14;;;;;;;;;22.00;22.00;;;;;;;;2;279081730;279081730;-96
2023/06/11 23:21:45;;;;;;;;;29.00;28.50;;;;;;;;2;234070262;234070262;-96
2023/06/11 23:30:46;;;;;;;;;19.50;19.50;;;;;;;;2;279082874;279082874;-96
2023/06/11 23:38:16;;;;;;;;;17.00;17.00;;;;;;;;2;234070472;234070472;-96
2023/06/11 23:47:17;;;;;;;;;20.50;20.50;;;;;;;;2;279080566;279080566;-96
2023/06/11 23:54:47;;;;;;;;;28.50;20.50;;;;;;;;2;234066736;234066736;-96
